createdAt,value
2023-03-24T00:02:16.639Z,101070.60
2023-03-24T00:04:44.976Z,101071.17
2023-03-24T00:07:14.650Z,101068.28
2023-03-24T00:09:43.158Z,101064.61
2023-03-24T00:12:11.880Z,101064.89
2023-03-24T00:14:46.724Z,101066.70
2023-03-24T00:17:17.740Z,101064.55
2023-03-24T00:19:47.842Z,101064.98
2023-03-24T00:22:21.469Z,101059.45
2023-03-24T00:24:49.904Z,101059.79
2023-03-24T00:27:18.896Z,101060.90
2023-03-24T00:29:47.189Z,101062.27
2023-03-24T00:32:15.911Z,101056.88
2023-03-24T00:34:44.227Z,101059.80
2023-03-24T00:37:13.384Z,101057.95
2023-03-24T00:39:43.697Z,101055.14
2023-03-24T00:42:17.843Z,101054.42
2023-03-24T00:44:46.337Z,101055.02
2023-03-24T00:47:18.128Z,101057.38
2023-03-24T00:49:48.239Z,101055.79
2023-03-24T00:52:23.169Z,101062.02
2023-03-24T00:54:52.436Z,101058.70
2023-03-24T00:57:23.626Z,101059.81
2023-03-24T00:59:52.420Z,101059.80
2023-03-24T01:02:25.015Z,101055.21
2023-03-24T01:04:57.576Z,101051.73
2023-03-24T01:07:26.377Z,101052.23
2023-03-24T01:09:58.005Z,101052.80
2023-03-24T01:12:27.566Z,101053.93
2023-03-24T01:14:55.819Z,101054.95
2023-03-24T01:17:25.779Z,101060.41
2023-03-24T01:19:54.131Z,101065.18
2023-03-24T01:22:22.399Z,101066.56
2023-03-24T01:24:51.049Z,101066.30
2023-03-24T01:27:19.381Z,101070.27
2023-03-24T01:29:47.865Z,101074.02
2023-03-24T01:32:16.438Z,101084.45
2023-03-24T01:34:44.921Z,101088.55
2023-03-24T01:37:13.198Z,101093.56
2023-03-24T01:39:42.570Z,101095.89
2023-03-24T01:42:18.533Z,101097.91
2023-03-24T01:44:47.432Z,101100.09
2023-03-24T01:47:17.927Z,101103.33
2023-03-24T01:49:59.473Z,101104.32
2023-03-24T01:52:29.461Z,101110.52
2023-03-24T01:55:02.099Z,101116.86
2023-03-24T01:57:35.452Z,101119.61
2023-03-24T02:00:07.216Z,101117.46
2023-03-24T02:02:58.946Z,101117.63
2023-03-24T02:05:31.833Z,101111.65
2023-03-24T02:08:19.428Z,101111.92
2023-03-24T02:10:50.034Z,101103.91
2023-03-24T02:13:18.892Z,101094.88
2023-03-24T02:16:08.327Z,101094.16
2023-03-24T02:18:56.065Z,101095.91
2023-03-24T02:21:28.427Z,101095.17
2023-03-24T02:24:07.697Z,101085.33
2023-03-24T02:26:42.792Z,101078.31
2023-03-24T02:29:30.447Z,101073.34
2023-03-24T02:32:04.912Z,101064.59
2023-03-24T02:34:33.798Z,101058.70
2023-03-24T02:37:02.420Z,101056.83
2023-03-24T02:39:38.219Z,101049.64
2023-03-24T02:42:18.788Z,101042.31
2023-03-24T02:44:57.806Z,101048.30
2023-03-24T02:47:43.503Z,101054.23
2023-03-24T02:50:18.531Z,101058.44
2023-03-24T02:52:49.032Z,101059.75
2023-03-24T02:55:28.348Z,101066.40
2023-03-24T02:58:05.113Z,101072.42
2023-03-24T03:01:14.176Z,101077.75
2023-03-24T03:04:16.257Z,101080.41
2023-03-24T03:06:49.661Z,101083.96
2023-03-24T03:09:18.469Z,101087.33
2023-03-24T03:11:48.011Z,101092.16
2023-03-24T03:14:18.380Z,101097.97
2023-03-24T03:16:48.403Z,101103.85
2023-03-24T03:19:24.027Z,101101.17
2023-03-24T03:21:53.719Z,101097.56
2023-03-24T03:24:27.254Z,101093.09
2023-03-24T03:27:08.425Z,101090.46
2023-03-24T03:29:39.241Z,101090.17
2023-03-24T03:32:08.278Z,101089.05
2023-03-24T03:34:43.243Z,101090.05
2023-03-24T03:37:14.754Z,101089.50
2023-03-24T03:39:52.842Z,101094.27
2023-03-24T03:42:21.198Z,101101.55
2023-03-24T03:44:50.164Z,101097.69
2023-03-24T03:47:21.434Z,101094.62
2023-03-24T03:49:50.342Z,101093.02
2023-03-24T03:52:21.080Z,101096.98
2023-03-24T03:54:50.206Z,101100.13
2023-03-24T03:57:18.630Z,101099.98
2023-03-24T04:00:20.664Z,101105.18
2023-03-24T04:03:24.351Z,101105.12
2023-03-24T04:06:04.384Z,101104.95
2023-03-24T04:08:51.978Z,101106.78
2023-03-24T04:11:40.978Z,101102.54
2023-03-24T04:14:29.698Z,101108.71
2023-03-24T04:17:48.615Z,101112.83
2023-03-24T04:20:32.791Z,101115.64
2023-03-24T04:23:03.297Z,101114.73
2023-03-24T04:25:35.428Z,101112.66
2023-03-24T04:28:09.877Z,101112.55
2023-03-24T04:30:50.751Z,101106.54
2023-03-24T04:33:25.359Z,101103.72
2023-03-24T04:35:58.404Z,101103.99
2023-03-24T04:38:38.525Z,101095.88
2023-03-24T04:41:43.396Z,101090.30
2023-03-24T04:44:22.016Z,101091.34
2023-03-24T04:47:13.148Z,101084.86
2023-03-24T04:49:46.709Z,101080.86
2023-03-24T04:52:18.794Z,101077.59
2023-03-24T04:54:49.041Z,101069.40
2023-03-24T04:57:17.661Z,101067.32
2023-03-24T04:59:51.274Z,101068.25
2023-03-24T05:02:21.649Z,101067.20
2023-03-24T05:05:08.065Z,101073.17
2023-03-24T05:07:46.329Z,101077.69
2023-03-24T05:10:17.122Z,101085.59
2023-03-24T05:12:51.381Z,101091.06
2023-03-24T05:15:39.624Z,101091.73
2023-03-24T05:18:20.192Z,101095.59
2023-03-24T05:20:48.630Z,101093.75
2023-03-24T05:23:20.833Z,101089.70
2023-03-24T05:25:52.953Z,101090.52
2023-03-24T05:28:25.465Z,101082.30
2023-03-24T05:30:54.765Z,101078.55
2023-03-24T05:33:44.209Z,101079.95
2023-03-24T05:36:14.891Z,101083.48
2023-03-24T05:38:49.118Z,101079.20
2023-03-24T05:41:17.356Z,101077.86
2023-03-24T05:43:45.644Z,101080.14
2023-03-24T05:46:15.947Z,101086.46
2023-03-24T05:48:44.527Z,101093.95
2023-03-24T05:51:17.010Z,101095.67
2023-03-24T05:53:46.090Z,101107.27
2023-03-24T05:56:23.921Z,101119.30
2023-03-24T05:59:00.689Z,101122.98
2023-03-24T06:01:49.224Z,101133.04
2023-03-24T06:04:51.192Z,101131.40
2023-03-24T06:07:26.785Z,101132.39
2023-03-24T06:10:03.086Z,101126.55
2023-03-24T06:12:38.047Z,101128.44
2023-03-24T06:15:06.527Z,101135.94
2023-03-24T06:17:42.774Z,101141.73
2023-03-24T06:20:18.724Z,101148.31
2023-03-24T06:23:18.650Z,101155.30
2023-03-24T06:26:10.916Z,101155.85
2023-03-24T06:28:46.970Z,101159.86
2023-03-24T06:31:21.555Z,101160.83
2023-03-24T06:33:51.914Z,101165.50
2023-03-24T06:36:20.277Z,101169.67
2023-03-24T06:38:51.050Z,101173.02
2023-03-24T06:41:21.411Z,101170.95
2023-03-24T06:43:58.507Z,101162.59
2023-03-24T06:46:27.202Z,101158.75
2023-03-24T06:48:55.844Z,101155.07
2023-03-24T06:51:25.211Z,101157.04
2023-03-24T06:53:55.430Z,101156.21
2023-03-24T06:56:28.609Z,101158.58
2023-03-24T06:59:00.192Z,101162.42
2023-03-24T07:01:33.733Z,101167.86
2023-03-24T07:04:22.013Z,101174.04
2023-03-24T07:07:01.337Z,101170.79
2023-03-24T07:09:39.627Z,101167.34
2023-03-24T07:12:08.360Z,101164.81
2023-03-24T07:14:37.372Z,101167.59
2023-03-24T07:17:10.026Z,101172.66
2023-03-24T07:19:45.652Z,101174.58
2023-03-24T07:22:37.919Z,101176.45
2023-03-24T07:25:40.962Z,101168.29
2023-03-24T07:28:18.545Z,101165.50
2023-03-24T07:30:50.490Z,101155.66
2023-03-24T07:33:24.540Z,101149.67
2023-03-24T07:35:57.951Z,101143.05
2023-03-24T07:38:29.719Z,101145.30
2023-03-24T07:41:01.958Z,101146.38
2023-03-24T07:43:31.896Z,101148.53
2023-03-24T07:46:18.717Z,101156.13
2023-03-24T07:48:47.880Z,101149.87
2023-03-24T07:51:18.255Z,101145.35
2023-03-24T07:53:53.832Z,101142.59
2023-03-24T07:56:28.082Z,101145.10
2023-03-24T07:58:58.686Z,101145.75
2023-03-24T08:01:33.565Z,101149.97
2023-03-24T08:04:04.893Z,101149.24
2023-03-24T08:06:50.138Z,101147.90
2023-03-24T08:09:18.741Z,101143.49
2023-03-24T08:11:47.034Z,101141.84
2023-03-24T08:14:16.360Z,101134.27
2023-03-24T08:16:46.558Z,101132.98
2023-03-24T08:19:17.299Z,101135.03
2023-03-24T08:21:48.600Z,101132.55
2023-03-24T08:24:17.981Z,101131.98
2023-03-24T08:26:51.060Z,101131.25
2023-03-24T08:29:19.484Z,101130.95
2023-03-24T08:31:48.053Z,101132.02
2023-03-24T08:34:17.315Z,101127.05
2023-03-24T08:36:46.374Z,101122.61
2023-03-24T08:39:14.975Z,101126.76
2023-03-24T08:41:46.646Z,101130.05
2023-03-24T08:44:15.392Z,101135.66
2023-03-24T08:46:45.127Z,101141.29
2023-03-24T08:49:13.854Z,101143.25
2023-03-24T08:51:42.822Z,101141.98
2023-03-24T08:54:12.873Z,101146.50
2023-03-24T08:56:41.457Z,101146.02
2023-03-24T08:59:10.127Z,101144.95
2023-03-24T09:01:38.504Z,101139.06
2023-03-24T09:04:06.671Z,101136.58
2023-03-24T09:06:35.116Z,101135.19
2023-03-24T09:09:03.554Z,101135.75
2023-03-24T09:11:38.575Z,101132.05
2023-03-24T09:14:07.269Z,101131.20
2023-03-24T09:16:35.564Z,101129.48
2023-03-24T09:19:06.013Z,101127.41
2023-03-24T09:21:36.283Z,101124.61
2023-03-24T09:24:04.660Z,101124.41
2023-03-24T09:26:34.263Z,101121.10
2023-03-24T09:29:03.015Z,101113.52
2023-03-24T09:31:33.461Z,101121.88
2023-03-24T09:34:04.245Z,101115.59
2023-03-24T09:36:32.797Z,101120.89
2023-03-24T09:39:01.026Z,101119.60
2023-03-24T09:41:31.944Z,101119.28
2023-03-24T09:44:16.220Z,101116.30
2023-03-24T09:46:49.294Z,101119.89
2023-03-24T09:49:23.731Z,101119.70
2023-03-24T09:51:53.842Z,101126.11
2023-03-24T09:54:31.652Z,101132.16
2023-03-24T09:56:59.986Z,101135.80
2023-03-24T09:59:34.401Z,101134.24
2023-03-24T10:02:03.974Z,101133.98
2023-03-24T10:04:32.624Z,101134.48
2023-03-24T10:07:08.958Z,101133.98
2023-03-24T10:09:38.083Z,101127.45
2023-03-24T10:12:27.927Z,101125.68
2023-03-24T10:15:04.125Z,101123.67
2023-03-24T10:17:46.214Z,101121.05
2023-03-24T10:20:23.873Z,101123.60
2023-03-24T10:23:11.821Z,101123.26
2023-03-24T10:25:46.348Z,101127.76
2023-03-24T10:28:31.151Z,101125.21
2023-03-24T10:31:00.634Z,101117.20
2023-03-24T10:33:32.602Z,101118.88
2023-03-24T10:36:08.612Z,101123.67
2023-03-24T10:38:45.717Z,101121.67
2023-03-24T10:41:18.670Z,101125.42
2023-03-24T10:43:47.444Z,101124.58
2023-03-24T10:46:16.453Z,101126.44
2023-03-24T10:48:44.945Z,101119.48
2023-03-24T10:51:19.765Z,101116.09
2023-03-24T10:53:49.093Z,101114.82
2023-03-24T10:56:41.511Z,101109.14
2023-03-24T10:59:20.112Z,101101.06
2023-03-24T11:01:48.542Z,101098.86
2023-03-24T11:04:21.160Z,101098.27
2023-03-24T11:07:21.182Z,101093.65
2023-03-24T11:09:58.572Z,101087.53
2023-03-24T11:12:34.146Z,101086.56
2023-03-24T11:15:21.046Z,101082.45
2023-03-24T11:17:58.874Z,101080.94
2023-03-24T11:20:33.698Z,101077.52
2023-03-24T11:23:02.031Z,101075.27
2023-03-24T11:25:34.207Z,101074.61
2023-03-24T11:28:09.565Z,101066.11
2023-03-24T11:30:46.145Z,101069.37
2023-03-24T11:33:35.747Z,101067.71
2023-03-24T11:36:28.566Z,101064.66
2023-03-24T11:39:00.882Z,101062.73
2023-03-24T11:41:29.442Z,101059.22
2023-03-24T11:44:17.270Z,101054.58
2023-03-24T11:46:52.895Z,101048.75
2023-03-24T11:49:22.913Z,101047.88
2023-03-24T11:51:53.052Z,101045.84
2023-03-24T11:54:21.918Z,101045.70
2023-03-24T11:56:54.565Z,101039.91
2023-03-24T11:59:27.953Z,101042.27
2023-03-24T12:01:59.089Z,101039.04
2023-03-24T12:04:27.512Z,101041.46
2023-03-24T12:07:14.897Z,101041.83
2023-03-24T12:09:45.981Z,101035.90
2023-03-24T12:12:33.577Z,101031.36
2023-03-24T12:15:27.411Z,101035.66
2023-03-24T12:18:06.719Z,101036.05
2023-03-24T12:20:36.770Z,101036.55
2023-03-24T12:23:10.364Z,101032.73
2023-03-24T12:25:43.047Z,101030.75
2023-03-24T12:28:12.927Z,101028.81
2023-03-24T12:30:59.829Z,101027.72
2023-03-24T12:33:28.485Z,101023.11
2023-03-24T12:36:15.571Z,101023.84
2023-03-24T12:38:43.855Z,101021.40
2023-03-24T12:41:47.291Z,101021.78
2023-03-24T12:44:24.422Z,101012.11
2023-03-24T12:46:55.628Z,101009.70
2023-03-24T12:49:29.995Z,101009.02
2023-03-24T12:52:17.011Z,101014.73
2023-03-24T12:54:51.419Z,101012.36
2023-03-24T12:57:19.979Z,101010.54
2023-03-24T12:59:49.276Z,101008.88
2023-03-24T13:02:23.467Z,101002.55
2023-03-24T13:04:52.820Z,100996.23
2023-03-24T13:07:26.000Z,100999.55
2023-03-24T13:09:59.582Z,101002.41
2023-03-24T13:12:29.296Z,101000.38
2023-03-24T13:15:14.085Z,100998.17
2023-03-24T13:17:48.496Z,100988.15
2023-03-24T13:20:21.438Z,100989.22
2023-03-24T13:22:49.892Z,100984.80
2023-03-24T13:25:31.498Z,100984.16
2023-03-24T13:28:01.231Z,100978.92
2023-03-24T13:30:35.810Z,100977.95
2023-03-24T13:33:06.418Z,100982.23
2023-03-24T13:35:46.818Z,100982.02
2023-03-24T13:38:19.215Z,100982.67
2023-03-24T13:40:50.612Z,100978.11
2023-03-24T13:43:20.992Z,100976.59
2023-03-24T13:45:53.254Z,100975.81
2023-03-24T13:48:31.072Z,100974.30
2023-03-24T13:51:09.058Z,100973.48
2023-03-24T13:53:41.580Z,100974.27
2023-03-24T13:56:11.398Z,100975.23
2023-03-24T13:58:50.077Z,100977.68
2023-03-24T14:01:40.211Z,100982.56
2023-03-24T14:04:15.782Z,100979.72
2023-03-24T14:06:45.027Z,100976.85
2023-03-24T14:09:21.443Z,100977.23
2023-03-24T14:12:10.554Z,100978.30
2023-03-24T14:14:59.838Z,100979.88
2023-03-24T14:17:28.317Z,100977.33
2023-03-24T14:20:02.251Z,100976.59
2023-03-24T14:22:33.109Z,100974.02
2023-03-24T14:25:02.370Z,100968.34
2023-03-24T14:27:30.744Z,100968.86
2023-03-24T14:30:06.681Z,100970.27
2023-03-24T14:32:41.197Z,100973.28
2023-03-24T14:35:28.327Z,100967.48
2023-03-24T14:37:59.121Z,100966.67
2023-03-24T14:40:29.755Z,100960.04
2023-03-24T14:43:06.002Z,100960.55
2023-03-24T14:45:39.356Z,100964.48
2023-03-24T14:48:17.025Z,100964.65
2023-03-24T14:50:45.333Z,100964.80
2023-03-24T14:53:17.924Z,100965.03
2023-03-24T14:55:48.091Z,100960.56
2023-03-24T14:58:24.130Z,100962.84
2023-03-24T15:03:50.431Z,100958.15
2023-03-24T15:06:24.292Z,100956.24
2023-03-24T15:08:53.226Z,100955.97
2023-03-24T15:11:28.803Z,100953.80
2023-03-24T15:14:04.218Z,100958.37
2023-03-24T15:16:33.844Z,100958.56
2023-03-24T15:19:12.241Z,100955.95
2023-03-24T15:21:47.271Z,100957.39
2023-03-24T15:24:18.740Z,100959.54
2023-03-24T15:26:47.369Z,100957.46
2023-03-24T15:29:15.790Z,100959.89
2023-03-24T15:31:44.444Z,100960.97
2023-03-24T15:34:23.474Z,100966.66
2023-03-24T15:36:58.589Z,100962.30
2023-03-24T15:39:39.135Z,100958.75
2023-03-24T15:42:17.367Z,100960.45
2023-03-24T15:44:45.841Z,100959.65
2023-03-24T15:47:24.096Z,100959.95
2023-03-24T15:49:53.859Z,100960.73
2023-03-24T15:52:28.644Z,100959.98
2023-03-24T15:55:16.328Z,100960.64
2023-03-24T15:57:45.124Z,100956.88
2023-03-24T16:00:19.240Z,100957.46
2023-03-24T16:02:53.801Z,100955.90
2023-03-24T16:05:22.949Z,100949.05
2023-03-24T16:07:59.299Z,100945.60
2023-03-24T16:10:34.283Z,100947.85
2023-03-24T16:13:13.540Z,100950.55
2023-03-24T16:15:45.744Z,100951.82
2023-03-24T16:18:17.976Z,100956.23
2023-03-24T16:20:46.471Z,100952.04
2023-03-24T16:23:14.720Z,100955.44
2023-03-24T16:25:44.086Z,100959.83
2023-03-24T16:28:12.829Z,100959.83
2023-03-24T16:30:41.669Z,100962.96
2023-03-24T16:33:12.721Z,100961.68
2023-03-24T16:35:41.478Z,100964.10
2023-03-24T16:38:12.814Z,100962.54
2023-03-24T16:40:42.022Z,100965.80
2023-03-24T16:43:10.164Z,100962.08
2023-03-24T16:45:38.376Z,100963.02
2023-03-24T16:48:06.920Z,100958.64
2023-03-24T16:50:37.274Z,100954.42
2023-03-24T16:53:05.630Z,100954.67
2023-03-24T16:55:34.329Z,100954.24
2023-03-24T16:58:02.978Z,100956.64
2023-03-24T17:00:37.263Z,100954.97
2023-03-24T17:03:07.062Z,100956.14
2023-03-24T17:05:43.580Z,100954.52
2023-03-24T17:08:13.013Z,100954.45
2023-03-24T17:10:42.756Z,100950.27
2023-03-24T17:13:15.103Z,100953.03
2023-03-24T17:15:44.907Z,100953.98
2023-03-24T17:18:14.311Z,100957.35
2023-03-24T17:20:49.717Z,100956.18
2023-03-24T17:23:19.099Z,100959.02
2023-03-24T17:25:47.795Z,100965.83
2023-03-24T17:28:18.337Z,100970.68
2023-03-24T17:30:47.180Z,100974.89
2023-03-24T17:33:16.020Z,100971.77
2023-03-24T17:35:45.456Z,100978.17
2023-03-24T17:38:16.761Z,100981.80
2023-03-24T17:40:46.805Z,100981.03
2023-03-24T17:43:15.618Z,100979.74
2023-03-24T17:45:44.113Z,100976.27
2023-03-24T17:48:14.809Z,100972.19
2023-03-24T17:50:43.051Z,100969.45
2023-03-24T17:53:13.791Z,100972.52
2023-03-24T17:55:43.023Z,100969.97
2023-03-24T17:58:11.223Z,100974.23
2023-03-24T18:00:41.669Z,100976.29
2023-03-24T18:03:11.321Z,100982.55
2023-03-24T18:05:44.926Z,100980.44
2023-03-24T18:08:13.174Z,100984.50
2023-03-24T18:10:41.356Z,100982.32
2023-03-24T18:13:13.732Z,100983.79
2023-03-24T18:15:43.589Z,100985.59
2023-03-24T18:18:18.228Z,100982.75
2023-03-24T18:20:53.411Z,100979.14
2023-03-24T18:23:24.425Z,100980.13
2023-03-24T18:25:59.075Z,100984.33
2023-03-24T18:28:28.046Z,100983.46
2023-03-24T18:31:03.851Z,100985.33
2023-03-24T18:33:34.020Z,100982.41
2023-03-24T18:36:02.722Z,100979.77
2023-03-24T18:38:32.040Z,100978.76
2023-03-24T18:41:03.374Z,100976.36
2023-03-24T18:43:35.304Z,100977.96
2023-03-24T18:46:09.521Z,100976.48
2023-03-24T18:48:49.151Z,100974.36
2023-03-24T18:51:20.833Z,100966.73
2023-03-24T18:53:50.913Z,100964.10
2023-03-24T18:56:24.468Z,100958.55
2023-03-24T18:58:54.308Z,100953.83
2023-03-24T19:01:25.678Z,100955.79
2023-03-24T19:03:54.381Z,100956.86
2023-03-24T19:06:26.483Z,100959.30
2023-03-24T19:08:55.573Z,100957.14
2023-03-24T19:11:29.845Z,100954.05
2023-03-24T19:14:05.020Z,100953.95
2023-03-24T19:16:34.813Z,100952.35
2023-03-24T19:19:05.254Z,100954.05
2023-03-24T19:21:35.847Z,100957.70
2023-03-24T19:24:06.622Z,100955.47
2023-03-24T19:26:35.005Z,100957.05
2023-03-24T19:29:03.173Z,100960.55
2023-03-24T19:31:33.710Z,100961.27
2023-03-24T19:34:02.205Z,100961.55
2023-03-24T19:36:32.269Z,100961.61
2023-03-24T19:39:02.101Z,100959.17
2023-03-24T19:41:31.227Z,100955.80
2023-03-24T19:43:59.434Z,100952.94
2023-03-24T19:46:29.480Z,100955.74
2023-03-24T19:48:57.921Z,100954.39
2023-03-24T19:51:26.302Z,100959.12
2023-03-24T19:53:55.343Z,100960.86
2023-03-24T19:56:23.880Z,100955.84
2023-03-24T19:58:53.359Z,100955.02
2023-03-24T20:01:23.987Z,100955.85
2023-03-24T20:03:53.412Z,100957.00
2023-03-24T20:06:22.456Z,100958.45
2023-03-24T20:08:52.157Z,100957.52
2023-03-24T20:11:20.954Z,100955.68
2023-03-24T20:13:51.099Z,100949.69
2023-03-24T20:16:20.195Z,100944.95
2023-03-24T20:18:48.424Z,100946.80
2023-03-24T20:21:19.299Z,100947.36
2023-03-24T20:23:47.626Z,100944.66
2023-03-24T20:26:19.647Z,100942.98
2023-03-24T20:28:48.112Z,100943.25
2023-03-24T20:31:16.614Z,100943.41
2023-03-24T20:33:45.872Z,100941.27
2023-03-24T20:36:14.907Z,100938.64
2023-03-24T20:38:43.125Z,100939.68
2023-03-24T20:41:11.375Z,100937.33
2023-03-24T20:43:39.934Z,100936.00
2023-03-24T20:46:08.900Z,100929.14
2023-03-24T20:48:38.537Z,100925.70
2023-03-24T20:51:06.721Z,100921.16
2023-03-24T20:53:36.045Z,100921.11
2023-03-24T20:56:06.846Z,100914.79
2023-03-24T20:58:36.219Z,100911.26
2023-03-24T21:01:08.313Z,100906.49
2023-03-24T21:03:36.831Z,100906.55
2023-03-24T21:06:05.392Z,100904.80
2023-03-24T21:08:34.337Z,100900.06
2023-03-24T21:11:03.706Z,100899.70
2023-03-24T21:13:37.911Z,100897.48
2023-03-24T21:16:09.118Z,100893.92
2023-03-24T21:18:40.846Z,100896.81
2023-03-24T21:21:12.777Z,100894.41
2023-03-24T21:23:43.182Z,100894.44
2023-03-24T21:26:18.290Z,100891.06
2023-03-24T21:28:51.125Z,100889.84
2023-03-24T21:31:23.257Z,100890.21
2023-03-24T21:33:52.290Z,100887.73
2023-03-24T21:36:21.054Z,100886.88
2023-03-24T21:38:51.820Z,100891.06
2023-03-24T21:41:20.162Z,100890.18
2023-03-24T21:43:51.494Z,100885.95
2023-03-24T21:46:26.546Z,100886.38
2023-03-24T21:48:59.682Z,100879.86
2023-03-24T21:51:30.843Z,100879.88
2023-03-24T21:54:03.729Z,100880.08
2023-03-24T21:56:32.811Z,100873.61
2023-03-24T21:59:01.425Z,100873.98
2023-03-24T22:01:31.228Z,100873.55
2023-03-24T22:03:59.778Z,100873.52
2023-03-24T22:06:38.103Z,100872.88
2023-03-24T22:09:07.155Z,100871.01
2023-03-24T22:11:36.989Z,100866.56
2023-03-24T22:14:10.340Z,100861.91
2023-03-24T22:16:41.288Z,100867.80
2023-03-24T22:19:09.941Z,100866.52
2023-03-24T22:21:39.861Z,100864.98
2023-03-24T22:24:08.556Z,100863.89
2023-03-24T22:26:36.904Z,100859.84
2023-03-24T22:29:05.319Z,100857.05
2023-03-24T22:31:33.677Z,100852.15
2023-03-24T22:34:02.009Z,100855.35
2023-03-24T22:36:31.502Z,100852.77
2023-03-24T22:38:59.817Z,100856.84
2023-03-24T22:41:28.951Z,100854.23
2023-03-24T22:43:57.244Z,100856.42
2023-03-24T22:46:25.754Z,100852.47
2023-03-24T22:48:54.844Z,100848.44
2023-03-24T22:51:23.000Z,100849.85
2023-03-24T22:53:52.430Z,100845.83
2023-03-24T22:56:20.767Z,100841.83
2023-03-24T22:58:49.088Z,100843.07
2023-03-24T23:01:18.130Z,100845.18
2023-03-24T23:03:46.727Z,100848.70
2023-03-24T23:06:21.842Z,100849.19
2023-03-24T23:08:53.709Z,100846.33
2023-03-24T23:11:21.957Z,100845.17
2023-03-24T23:14:06.775Z,100844.11
2023-03-24T23:16:38.020Z,100836.68
2023-03-24T23:19:09.685Z,100829.42
2023-03-24T23:21:39.465Z,100832.13
2023-03-24T23:24:07.761Z,100829.75
2023-03-24T23:26:39.191Z,100829.99
2023-03-24T23:29:07.371Z,100827.38
2023-03-24T23:31:37.062Z,100823.20
2023-03-24T23:34:07.729Z,100822.55
2023-03-24T23:36:36.057Z,100823.56
2023-03-24T23:39:06.101Z,100821.36
2023-03-24T23:41:35.837Z,100820.64
2023-03-24T23:44:05.511Z,100819.01
2023-03-24T23:46:34.871Z,100817.27
2023-03-24T23:49:03.416Z,100820.98
2023-03-24T23:51:31.728Z,100822.96
2023-03-24T23:53:59.887Z,100823.80
2023-03-24T23:56:30.825Z,100819.21
2023-03-24T23:58:59.256Z,100816.17
